createdAt,value
2019-05-30T00:02:43.999Z,11.06
2019-05-30T00:05:50.652Z,11.06
2019-05-30T00:08:54.383Z,10.95
2019-05-30T00:11:58.619Z,10.96
2019-05-30T00:15:05.873Z,10.86
2019-05-30T00:18:09.788Z,10.95
2019-05-30T00:21:13.374Z,10.86
2019-05-30T00:24:20.606Z,10.69
2019-05-30T00:27:27.844Z,10.81
2019-05-30T00:30:31.781Z,10.76
2019-05-30T00:33:35.380Z,10.74
2019-05-30T00:36:39.160Z,10.78
2019-05-30T00:39:42.692Z,10.84
2019-05-30T00:42:47.752Z,10.83
2019-05-30T00:45:51.539Z,10.65
2019-05-30T00:48:56.264Z,10.68
2019-05-30T00:52:00.562Z,10.66
2019-05-30T00:55:07.549Z,10.53
2019-05-30T00:58:11.380Z,10.53
2019-05-30T01:01:14.993Z,10.46
2019-05-30T01:04:18.821Z,10.50
2019-05-30T01:07:22.432Z,10.47
2019-05-30T01:10:26.256Z,10.55
2019-05-30T01:13:29.858Z,10.53
2019-05-30T01:16:33.422Z,10.49
2019-05-30T01:19:37.067Z,10.44
2019-05-30T01:22:40.631Z,10.46
2019-05-30T01:25:44.244Z,10.55
2019-05-30T01:28:49.926Z,10.50
2019-05-30T01:31:53.592Z,10.49
2019-05-30T01:34:59.584Z,10.25
2019-05-30T01:38:03.947Z,10.07
2019-05-30T01:41:08.101Z,9.98
2019-05-30T01:44:11.724Z,9.84
2019-05-30T01:47:15.454Z,10.00
2019-05-30T01:50:19.026Z,10.17
2019-05-30T01:53:22.765Z,10.28
2019-05-30T01:56:26.478Z,10.27
2019-05-30T01:59:30.081Z,10.14
2019-05-30T02:02:33.644Z,9.99
2019-05-30T02:05:37.349Z,9.97
2019-05-30T02:08:40.860Z,9.93
2019-05-30T02:11:44.457Z,9.86
2019-05-30T02:14:48.006Z,9.68
2019-05-30T02:17:51.595Z,9.72
2019-05-30T02:20:55.115Z,9.47
2019-05-30T02:23:59.773Z,9.45
2019-05-30T02:27:04.187Z,9.35
2019-05-30T02:30:27.139Z,9.29
2019-05-30T02:33:30.683Z,9.18
2019-05-30T02:36:34.294Z,9.34
2019-05-30T02:39:37.936Z,9.24
2019-05-30T02:42:44.572Z,9.16
2019-05-30T02:45:48.280Z,9.30
2019-05-30T02:48:58.981Z,9.51
2019-05-30T02:51:57.124Z,9.42
2019-05-30T02:55:01.888Z,9.31
2019-05-30T02:58:06.592Z,9.41
2019-05-30T03:01:13.788Z,9.46
2019-05-30T03:04:16.539Z,9.47
2019-05-30T03:07:20.565Z,9.53
2019-05-30T03:10:24.425Z,9.44
2019-05-30T03:13:28.129Z,9.51
2019-05-30T03:16:31.768Z,9.46
2019-05-30T03:19:44.117Z,9.29
2019-05-30T03:22:47.830Z,9.34
2019-05-30T03:25:51.404Z,9.35
2019-05-30T03:28:55.052Z,9.34
2019-05-30T03:32:33.970Z,9.53
2019-05-30T03:35:11.051Z,9.44
2019-05-30T03:38:13.559Z,9.59
2019-05-30T03:41:16.743Z,9.71
2019-05-30T03:44:20.334Z,9.80
2019-05-30T03:47:26.627Z,9.96
2019-05-30T03:50:31.503Z,10.09
2019-05-30T03:53:35.757Z,10.20
2019-05-30T03:56:48.126Z,10.39
2019-05-30T03:59:54.860Z,10.45
2019-05-30T04:03:15.434Z,10.03
2019-05-30T04:06:30.885Z,9.90
2019-05-30T04:09:36.887Z,10.43
2019-05-30T04:12:49.258Z,10.46
2019-05-30T04:15:52.941Z,10.67
2019-05-30T04:18:56.489Z,10.74
2019-05-30T04:22:00.111Z,10.83
2019-05-30T04:25:05.568Z,10.98
2019-05-30T04:28:09.753Z,11.23
2019-05-30T04:31:14.487Z,11.35
2019-05-30T04:34:19.582Z,11.64
2019-05-30T04:37:23.180Z,11.27
2019-05-30T04:40:26.860Z,10.54
2019-05-30T04:43:30.459Z,10.82
2019-05-30T04:46:34.028Z,11.22
2019-05-30T04:49:37.683Z,11.93
2019-05-30T04:52:41.262Z,13.02
2019-05-30T04:55:44.915Z,13.45
2019-05-30T04:58:48.490Z,13.85
2019-05-30T05:01:52.152Z,13.53
2019-05-30T05:04:55.722Z,13.19
2019-05-30T05:07:59.314Z,12.99
2019-05-30T05:11:02.904Z,13.23
2019-05-30T05:14:06.484Z,13.84
2019-05-30T05:17:10.210Z,13.96
2019-05-30T05:20:15.182Z,14.08
2019-05-30T05:23:19.396Z,14.31
2019-05-30T05:26:23.638Z,13.85
2019-05-30T05:29:27.391Z,14.53
2019-05-30T05:32:31.100Z,14.90
2019-05-30T05:35:34.710Z,15.20
2019-05-30T05:38:38.328Z,15.48
2019-05-30T05:41:42.088Z,15.26
2019-05-30T05:44:45.783Z,15.26
2019-05-30T05:47:49.432Z,15.33
2019-05-30T05:50:53.032Z,15.53
2019-05-30T05:53:56.596Z,15.21
2019-05-30T05:57:00.304Z,15.72
2019-05-30T06:00:06.116Z,16.51
2019-05-30T06:03:09.812Z,16.79
2019-05-30T06:06:13.532Z,17.57
2019-05-30T06:09:18.321Z,17.90
2019-05-30T06:12:22.075Z,17.95
2019-05-30T06:15:25.829Z,17.99
2019-05-30T06:18:29.480Z,17.27
2019-05-30T06:21:33.171Z,17.37
2019-05-30T06:24:36.878Z,17.89
2019-05-30T06:27:40.610Z,18.06
2019-05-30T06:30:45.406Z,17.77
2019-05-30T06:33:48.957Z,18.26
2019-05-30T06:36:52.630Z,18.46
2019-05-30T06:39:56.272Z,18.71
2019-05-30T06:42:59.938Z,19.31
2019-05-30T06:46:05.239Z,19.48
2019-05-30T06:49:08.925Z,19.62
2019-05-30T06:52:12.635Z,17.99
2019-05-30T06:55:16.407Z,18.23
2019-05-30T06:58:35.360Z,18.71
2019-05-30T07:01:25.853Z,18.93
2019-05-30T07:04:50.126Z,19.12
2019-05-30T07:07:38.383Z,19.55
2019-05-30T07:10:42.979Z,20.30
2019-05-30T07:13:46.630Z,19.42
2019-05-30T07:16:50.328Z,20.17
2019-05-30T07:19:53.985Z,20.18
2019-05-30T07:23:00.453Z,19.85
2019-05-30T07:26:04.380Z,20.19
2019-05-30T07:29:08.071Z,19.55
2019-05-30T07:32:14.983Z,19.83
2019-05-30T07:35:18.718Z,20.20
2019-05-30T07:38:22.350Z,20.19
2019-05-30T07:41:28.779Z,20.06
2019-05-30T07:44:32.873Z,21.05
2019-05-30T07:47:36.538Z,20.50
2019-05-30T07:50:40.240Z,21.80
2019-05-30T07:53:43.931Z,21.68
2019-05-30T07:56:47.567Z,21.39
2019-05-30T07:59:51.249Z,21.96
2019-05-30T08:02:54.891Z,23.05
2019-05-30T08:05:58.925Z,23.06
2019-05-30T08:09:02.651Z,22.58
2019-05-30T08:12:06.434Z,23.02
2019-05-30T08:15:13.363Z,23.10
2019-05-30T08:18:17.101Z,23.43
2019-05-30T08:21:23.602Z,23.54
2019-05-30T08:24:30.065Z,24.61
2019-05-30T08:27:34.999Z,23.62
2019-05-30T08:30:38.830Z,24.23
2019-05-30T08:33:42.488Z,24.85
2019-05-30T08:36:46.179Z,24.31
2019-05-30T08:39:49.813Z,23.64
2019-05-30T08:42:53.493Z,24.27
2019-05-30T08:46:00.385Z,24.69
2019-05-30T08:49:07.217Z,24.34
2019-05-30T08:52:10.864Z,24.07
2019-05-30T08:55:15.985Z,25.14
2019-05-30T08:58:19.704Z,24.88
2019-05-30T09:01:24.918Z,24.29
2019-05-30T09:04:28.582Z,25.73
2019-05-30T09:07:32.239Z,25.33
2019-05-30T09:10:39.168Z,24.66
2019-05-30T09:13:44.514Z,25.53
2019-05-30T09:16:49.605Z,25.82
2019-05-30T09:19:53.581Z,25.51
2019-05-30T09:22:57.297Z,24.37
2019-05-30T09:26:01.004Z,24.86
2019-05-30T09:29:06.402Z,25.30
2019-05-30T09:32:10.171Z,24.82
2019-05-30T09:35:15.729Z,25.59
2019-05-30T09:38:19.566Z,25.97
2019-05-30T09:41:23.278Z,25.85
2019-05-30T09:44:26.981Z,26.48
2019-05-30T09:47:30.693Z,27.32
2019-05-30T09:50:34.346Z,27.92
2019-05-30T09:53:38.020Z,27.88
2019-05-30T09:56:42.057Z,26.25
2019-05-30T09:59:48.544Z,26.78
2019-05-30T10:02:52.728Z,27.86
2019-05-30T10:05:56.378Z,28.93
2019-05-30T10:09:00.042Z,29.48
2019-05-30T10:12:03.710Z,29.97
2019-05-30T10:15:11.017Z,30.06
2019-05-30T10:18:14.755Z,29.25
2019-05-30T10:21:18.409Z,29.39
2019-05-30T10:24:22.071Z,27.08
2019-05-30T10:27:25.713Z,28.71
2019-05-30T10:30:29.729Z,30.15
2019-05-30T10:33:33.464Z,30.70
2019-05-30T10:36:44.203Z,29.49
2019-05-30T10:39:42.768Z,30.47
2019-05-30T10:42:47.807Z,29.83
2019-05-30T10:45:51.801Z,32.50
2019-05-30T10:48:56.749Z,31.88
2019-05-30T10:52:00.869Z,30.20
2019-05-30T10:55:06.827Z,29.81
2019-05-30T10:58:10.469Z,28.83
2019-05-30T11:01:14.155Z,31.27
2019-05-30T11:04:17.862Z,32.40
2019-05-30T11:07:30.690Z,30.66
2019-05-30T11:10:43.675Z,28.99
2019-05-30T11:13:47.393Z,29.70
2019-05-30T11:16:51.729Z,31.49
2019-05-30T11:19:56.162Z,31.83
2019-05-30T11:22:59.906Z,32.77
2019-05-30T11:26:03.544Z,33.73
2019-05-30T11:29:07.200Z,32.42
2019-05-30T11:32:10.874Z,31.23
2019-05-30T11:35:14.655Z,30.07
2019-05-30T11:38:18.287Z,31.86
2019-05-30T11:41:21.992Z,30.44
2019-05-30T11:44:25.641Z,31.17
2019-05-30T11:47:29.351Z,31.17
2019-05-30T11:50:33.212Z,31.98
2019-05-30T11:53:36.980Z,31.98
2019-05-30T11:56:40.626Z,33.47
2019-05-30T11:59:44.287Z,33.42
2019-05-30T12:02:47.922Z,32.93
2019-05-30T12:05:52.505Z,32.93
2019-05-30T12:08:56.926Z,33.25
2019-05-30T12:12:01.432Z,33.90
2019-05-30T12:15:07.505Z,34.15
2019-05-30T12:18:11.278Z,31.94
2019-05-30T12:21:14.974Z,31.42
2019-05-30T12:24:18.653Z,30.09
2019-05-30T12:27:22.355Z,31.87
2019-05-30T12:30:26.410Z,29.65
2019-05-30T12:33:30.079Z,29.65
2019-05-30T12:36:33.733Z,31.06
2019-05-30T12:39:37.401Z,27.93
2019-05-30T12:42:41.129Z,27.74
2019-05-30T12:45:44.800Z,27.53
2019-05-30T12:48:48.425Z,30.01
2019-05-30T12:51:52.100Z,31.16
2019-05-30T12:54:56.393Z,28.91
2019-05-30T12:58:00.762Z,28.11
2019-05-30T13:01:04.583Z,30.90
2019-05-30T13:04:08.289Z,33.16
2019-05-30T13:07:12.027Z,34.49
2019-05-30T13:10:17.592Z,34.34
2019-05-30T13:13:21.291Z,34.34
2019-05-30T13:16:24.975Z,29.34
2019-05-30T13:19:28.657Z,30.42
2019-05-30T13:22:32.374Z,30.35
2019-05-30T13:25:36.123Z,29.04
2019-05-30T13:28:39.823Z,29.24
2019-05-30T13:31:43.495Z,28.52
2019-05-30T13:34:47.152Z,26.28
2019-05-30T13:37:50.850Z,24.46
2019-05-30T13:40:54.494Z,25.55
2019-05-30T13:43:58.181Z,26.20
2019-05-30T13:47:02.556Z,26.25
2019-05-30T13:50:13.046Z,25.98
2019-05-30T13:53:14.446Z,26.00
2019-05-30T13:56:18.130Z,27.02
2019-05-30T13:59:21.750Z,27.58
2019-05-30T14:02:25.417Z,28.18
2019-05-30T14:05:29.119Z,27.86
2019-05-30T14:08:41.151Z,28.45
2019-05-30T14:11:38.169Z,27.63
2019-05-30T14:14:41.893Z,28.09
2019-05-30T14:17:45.531Z,27.84
2019-05-30T14:20:49.323Z,26.87
2019-05-30T14:23:52.973Z,26.84
2019-05-30T14:26:56.649Z,26.12
2019-05-30T14:30:00.311Z,25.00
2019-05-30T14:33:04.150Z,24.19
2019-05-30T14:36:11.403Z,23.61
2019-05-30T14:39:13.333Z,23.04
2019-05-30T14:42:16.958Z,23.37
2019-05-30T14:45:20.763Z,24.22
2019-05-30T14:48:24.425Z,24.51
2019-05-30T14:51:28.108Z,24.63
2019-05-30T14:54:31.804Z,24.64
2019-05-30T14:57:35.580Z,24.32
2019-05-30T15:00:39.200Z,23.22
2019-05-30T15:03:42.891Z,23.19
2019-05-30T15:06:46.530Z,23.42
2019-05-30T15:09:50.212Z,23.79
2019-05-30T15:12:54.002Z,23.87
2019-05-30T15:15:57.733Z,23.79
2019-05-30T15:19:06.237Z,23.76
2019-05-30T15:22:09.846Z,23.83
2019-05-30T15:25:27.650Z,23.60
2019-05-30T15:28:31.395Z,23.81
2019-05-30T15:31:35.034Z,23.56
2019-05-30T15:34:40.301Z,23.35
2019-05-30T15:37:44.093Z,23.29
2019-05-30T15:41:11.433Z,23.30
2019-05-30T15:44:20.899Z,23.39
2019-05-30T15:48:33.958Z,23.41
2019-05-30T15:50:36.790Z,23.32
2019-05-30T15:53:40.504Z,23.56
2019-05-30T15:56:48.489Z,23.60
2019-05-30T15:59:51.532Z,23.10
2019-05-30T16:02:55.195Z,23.45
2019-05-30T16:05:58.852Z,23.35
2019-05-30T16:09:02.550Z,22.75
2019-05-30T16:12:06.204Z,22.41
2019-05-30T16:15:13.464Z,23.22
2019-05-30T16:18:19.898Z,23.69
2019-05-30T16:21:23.715Z,23.36
2019-05-30T16:24:27.585Z,23.38
2019-05-30T16:27:31.376Z,22.93
2019-05-30T16:30:35.089Z,22.65
2019-05-30T16:33:40.443Z,22.43
2019-05-30T16:36:46.402Z,22.28
2019-05-30T16:40:04.682Z,22.30
2019-05-30T16:42:55.551Z,22.28
2019-05-30T16:45:59.312Z,22.27
2019-05-30T16:49:03.029Z,22.24
2019-05-30T16:52:06.866Z,22.51
2019-05-30T16:55:15.088Z,22.12
2019-05-30T16:58:24.180Z,21.99
2019-05-30T17:01:27.866Z,21.91
2019-05-30T17:04:33.324Z,21.99
2019-05-30T17:07:37.110Z,21.92
2019-05-30T17:10:42.635Z,21.88
2019-05-30T17:13:48.356Z,22.10
2019-05-30T17:16:53.660Z,21.81
2019-05-30T17:20:00.923Z,21.58
2019-05-30T17:23:07.702Z,21.52
2019-05-30T17:26:11.332Z,21.43
2019-05-30T17:29:15.141Z,21.44
2019-05-30T17:32:19.708Z,21.44
2019-05-30T17:35:24.123Z,21.28
2019-05-30T17:38:28.773Z,21.40
2019-05-30T17:41:32.695Z,21.32
2019-05-30T17:44:36.346Z,21.21
2019-05-30T17:47:40.146Z,21.16
2019-05-30T17:50:43.906Z,21.15
2019-05-30T17:53:47.681Z,21.11
2019-05-30T17:56:51.350Z,21.06
2019-05-30T17:59:55.255Z,20.98
2019-05-30T18:03:00.603Z,21.01
2019-05-30T18:06:04.472Z,20.99
2019-05-30T18:09:11.354Z,20.85
2019-05-30T18:12:15.176Z,20.89
2019-05-30T18:15:18.974Z,20.94
2019-05-30T18:18:23.167Z,20.69
2019-05-30T18:21:27.482Z,20.57
2019-05-30T18:24:32.725Z,20.52
2019-05-30T18:27:36.431Z,20.52
2019-05-30T18:30:54.991Z,20.44
2019-05-30T18:33:58.621Z,20.42
2019-05-30T18:37:05.800Z,20.41
2019-05-30T18:40:10.075Z,20.30
2019-05-30T18:43:13.935Z,20.28
2019-05-30T18:46:17.661Z,20.25
2019-05-30T18:49:21.334Z,20.20
2019-05-30T18:52:26.101Z,20.11
2019-05-30T18:55:30.716Z,20.17
2019-05-30T18:58:37.599Z,20.11
2019-05-30T19:01:41.502Z,19.99
2019-05-30T19:04:45.215Z,19.93
2019-05-30T19:07:52.152Z,19.87
2019-05-30T19:10:56.261Z,19.75
2019-05-30T19:14:00.340Z,19.71
2019-05-30T19:17:04.059Z,19.63
2019-05-30T19:20:08.695Z,19.54
2019-05-30T19:23:12.672Z,19.60
2019-05-30T19:26:16.381Z,19.58
2019-05-30T19:29:20.033Z,19.49
2019-05-30T19:32:23.715Z,19.36
2019-05-30T19:35:27.374Z,19.39
2019-05-30T19:38:35.469Z,19.26
2019-05-30T19:41:53.454Z,19.36
2019-05-30T19:44:44.635Z,19.18
2019-05-30T19:47:48.382Z,19.04
2019-05-30T19:50:52.158Z,19.03
2019-05-30T19:53:57.284Z,18.96
2019-05-30T19:57:00.968Z,18.91
2019-05-30T20:00:07.750Z,18.72
2019-05-30T20:03:11.534Z,18.69
2019-05-30T20:06:15.174Z,18.60
2019-05-30T20:09:18.860Z,18.56
2019-05-30T20:12:22.654Z,18.58
2019-05-30T20:15:26.381Z,18.59
2019-05-30T20:18:31.469Z,18.41
2019-05-30T20:21:35.729Z,18.35
2019-05-30T20:24:42.672Z,18.28
2019-05-30T20:27:46.427Z,18.17
2019-05-30T20:30:50.323Z,18.24
2019-05-30T20:33:55.628Z,18.08
2019-05-30T20:36:59.357Z,18.01
2019-05-30T20:40:06.397Z,17.90
2019-05-30T20:43:10.038Z,17.88
2019-05-30T20:46:22.778Z,17.84
2019-05-30T20:49:20.784Z,17.80
2019-05-30T20:52:24.558Z,17.82
2019-05-30T20:55:30.161Z,17.76
2019-05-30T20:58:33.829Z,17.75
2019-05-30T21:01:39.657Z,17.76
2019-05-30T21:04:43.114Z,17.85
2019-05-30T21:07:48.480Z,17.87
2019-05-30T21:10:54.220Z,17.77
2019-05-30T21:14:00.311Z,17.73
2019-05-30T21:17:05.796Z,17.70
2019-05-30T21:20:24.965Z,17.71
2019-05-30T21:23:28.752Z,17.72
2019-05-30T21:26:37.266Z,17.74
2019-05-30T21:29:41.140Z,17.72
2019-05-30T21:32:46.427Z,17.75
2019-05-30T21:35:50.503Z,17.74
2019-05-30T21:38:54.290Z,17.80
2019-05-30T21:41:58.026Z,17.92
2019-05-30T21:45:01.775Z,17.90
2019-05-30T21:48:05.824Z,18.00
2019-05-30T21:51:10.117Z,18.02
2019-05-30T21:54:13.927Z,18.02
2019-05-30T21:57:17.635Z,18.09
2019-05-30T22:00:48.548Z,18.10
2019-05-30T22:03:52.271Z,18.19
2019-05-30T22:06:56.076Z,18.23
2019-05-30T22:09:59.757Z,18.30
2019-05-30T22:13:09.585Z,18.27
2019-05-30T22:16:08.827Z,18.17
2019-05-30T22:19:12.632Z,18.22
2019-05-30T22:22:16.383Z,18.17
2019-05-30T22:25:20.183Z,18.27
2019-05-30T22:28:23.846Z,18.33
2019-05-30T22:31:27.616Z,18.29
2019-05-30T22:34:31.411Z,18.37
2019-05-30T22:37:35.162Z,18.11
2019-05-30T22:40:38.845Z,18.22
2019-05-30T22:43:43.826Z,18.30
2019-05-30T22:46:50.325Z,18.25
2019-05-30T22:49:54.220Z,18.25
2019-05-30T22:52:57.976Z,18.24
2019-05-30T22:56:01.779Z,18.25
2019-05-30T22:59:05.443Z,18.32
2019-05-30T23:02:09.231Z,18.35
2019-05-30T23:05:13.158Z,18.32
2019-05-30T23:08:17.132Z,18.24
2019-05-30T23:11:20.757Z,18.29
2019-05-30T23:14:24.532Z,18.28
2019-05-30T23:17:28.416Z,18.35
2019-05-30T23:20:32.076Z,18.35
2019-05-30T23:23:35.791Z,18.45
2019-05-30T23:26:39.614Z,18.46
2019-05-30T23:29:43.382Z,18.43
2019-05-30T23:32:48.158Z,18.41
2019-05-30T23:35:52.335Z,18.53
2019-05-30T23:38:56.889Z,18.52
2019-05-30T23:42:00.689Z,18.41
2019-05-30T23:45:06.441Z,18.42
2019-05-30T23:48:10.119Z,18.40
2019-05-30T23:51:13.758Z,18.35
2019-05-30T23:54:17.539Z,18.32
2019-05-30T23:57:21.243Z,18.34
